createdAt,value
2023-04-05T00:01:39.358Z,42.65
2023-04-05T00:04:08.220Z,42.29
2023-04-05T00:06:35.235Z,42.72
2023-04-05T00:09:03.956Z,42.30
2023-04-05T00:11:32.171Z,42.64
2023-04-05T00:14:00.715Z,42.75
2023-04-05T00:16:28.302Z,42.36
2023-04-05T00:18:56.726Z,42.42
2023-04-05T00:21:24.169Z,42.64
2023-04-05T00:23:51.864Z,42.54
2023-04-05T00:26:19.024Z,42.36
2023-04-05T00:28:45.983Z,42.52
2023-04-05T00:31:12.795Z,42.69
2023-04-05T00:33:39.727Z,42.70
2023-04-05T00:36:10.309Z,42.35
2023-04-05T00:38:37.362Z,42.43
2023-04-05T00:41:04.300Z,42.20
2023-04-05T00:43:31.197Z,42.32
2023-04-05T00:45:58.076Z,42.50
2023-04-05T00:48:25.792Z,42.49
2023-04-05T00:50:52.930Z,42.17
2023-04-05T00:53:20.288Z,42.24
2023-04-05T00:55:48.443Z,42.33
2023-04-05T00:58:18.452Z,42.12
2023-04-05T01:00:47.998Z,42.45
2023-04-05T01:03:15.038Z,42.57
2023-04-05T01:05:47.676Z,42.52
2023-04-05T01:08:17.790Z,42.16
2023-04-05T01:10:47.473Z,42.35
2023-04-05T01:13:16.649Z,42.25
2023-04-05T01:15:43.700Z,42.42
2023-04-05T01:18:11.618Z,42.12
2023-04-05T01:20:41.150Z,42.36
2023-04-05T01:23:11.670Z,42.38
2023-04-05T01:25:38.786Z,42.44
2023-04-05T01:28:08.734Z,42.57
2023-04-05T01:30:38.142Z,42.38
2023-04-05T01:33:14.639Z,42.44
2023-04-05T01:35:45.425Z,42.54
2023-04-05T01:38:15.668Z,42.44
2023-04-05T01:40:42.971Z,42.26
2023-04-05T01:43:13.021Z,42.53
2023-04-05T01:45:40.259Z,42.38
2023-04-05T01:48:07.222Z,42.41
2023-04-05T01:50:34.034Z,42.38
2023-04-05T01:53:00.770Z,42.13
2023-04-05T01:55:27.650Z,42.03
2023-04-05T01:57:56.023Z,42.19
2023-04-05T02:00:23.028Z,42.11
2023-04-05T02:02:54.739Z,42.08
2023-04-05T02:05:21.883Z,42.31
2023-04-05T02:07:48.779Z,41.97
2023-04-05T02:10:16.241Z,42.12
2023-04-05T02:12:43.234Z,42.35
2023-04-05T02:15:10.373Z,42.04
2023-04-05T02:17:40.184Z,42.08
2023-04-05T02:20:08.054Z,42.09
2023-04-05T02:22:34.816Z,42.12
2023-04-05T02:25:02.024Z,42.17
2023-04-05T02:27:28.884Z,42.21
2023-04-05T02:29:57.617Z,41.78
2023-04-05T02:32:25.073Z,42.16
2023-04-05T02:34:52.865Z,41.99
2023-04-05T02:37:20.111Z,42.00
2023-04-05T02:39:47.208Z,42.16
2023-04-05T02:42:14.056Z,42.23
2023-04-05T02:44:40.975Z,42.14
2023-04-05T02:47:07.741Z,42.02
2023-04-05T02:49:34.562Z,41.72
2023-04-05T02:52:01.295Z,41.76
2023-04-05T02:54:28.070Z,41.72
2023-04-05T02:56:58.222Z,42.07
2023-04-05T02:59:25.361Z,42.06
2023-04-05T03:01:52.185Z,41.70
2023-04-05T03:04:19.194Z,41.73
2023-04-05T03:06:48.991Z,41.87
2023-04-05T03:09:15.856Z,41.92
2023-04-05T03:11:42.700Z,41.95
2023-04-05T03:14:09.533Z,41.70
2023-04-05T03:16:37.457Z,42.21
2023-04-05T03:19:06.702Z,41.87
2023-04-05T03:21:34.265Z,41.89
2023-04-05T03:24:01.209Z,42.09
2023-04-05T03:26:27.999Z,41.92
2023-04-05T03:28:54.787Z,42.00
2023-04-05T03:31:21.879Z,41.69
2023-04-05T03:33:48.653Z,41.95
2023-04-05T03:36:16.936Z,42.11
2023-04-05T03:38:44.761Z,41.85
2023-04-05T03:41:11.702Z,41.79
2023-04-05T03:43:38.505Z,41.83
2023-04-05T03:46:05.289Z,41.92
2023-04-05T03:48:32.033Z,41.77
2023-04-05T03:50:59.122Z,41.64
2023-04-05T03:53:26.730Z,42.06
2023-04-05T03:55:54.538Z,41.94
2023-04-05T03:58:21.422Z,42.05
2023-04-05T04:00:50.902Z,41.89
2023-04-05T04:03:17.800Z,41.85
2023-04-05T04:05:44.986Z,41.82
2023-04-05T04:08:13.310Z,41.84
2023-04-05T04:10:40.096Z,42.06
2023-04-05T04:13:06.855Z,42.06
2023-04-05T04:15:33.643Z,41.63
2023-04-05T04:18:02.711Z,41.80
2023-04-05T04:20:29.679Z,41.71
2023-04-05T04:22:58.906Z,41.97
2023-04-05T04:25:26.936Z,41.98
2023-04-05T04:27:54.975Z,41.86
2023-04-05T04:30:22.954Z,42.04
2023-04-05T04:32:59.089Z,41.89
2023-04-05T04:35:29.373Z,42.00
2023-04-05T04:37:58.322Z,41.86
2023-04-05T04:40:45.093Z,41.78
2023-04-05T04:43:14.790Z,41.92
2023-04-05T04:45:42.081Z,42.05
2023-04-05T04:48:09.172Z,41.90
2023-04-05T04:50:36.312Z,41.72
2023-04-05T04:53:03.307Z,41.64
2023-04-05T04:55:30.761Z,41.88
2023-04-05T04:57:57.528Z,42.00
2023-04-05T05:00:25.219Z,41.96
2023-04-05T05:02:52.776Z,42.16
2023-04-05T05:05:22.997Z,42.06
2023-04-05T05:07:50.197Z,41.79
2023-04-05T05:10:17.002Z,42.25
2023-04-05T05:12:43.811Z,42.16
2023-04-05T05:15:11.050Z,41.93
2023-04-05T05:17:39.703Z,42.25
2023-04-05T05:20:11.336Z,42.12
2023-04-05T05:22:38.937Z,42.00
2023-04-05T05:25:06.534Z,41.94
2023-04-05T05:27:34.505Z,42.31
2023-04-05T05:30:01.559Z,41.82
2023-04-05T05:32:28.509Z,41.90
2023-04-05T05:34:55.541Z,41.95
2023-04-05T05:37:29.817Z,42.25
2023-04-05T05:39:56.778Z,42.16
2023-04-05T05:42:24.124Z,42.16
2023-04-05T05:44:50.953Z,41.96
2023-04-05T05:47:17.738Z,42.21
2023-04-05T05:49:44.574Z,42.04
2023-04-05T05:52:11.429Z,42.16
2023-04-05T05:54:38.347Z,42.14
2023-04-05T05:57:05.334Z,41.89
2023-04-05T05:59:32.290Z,42.00
2023-04-05T06:01:59.264Z,41.81
2023-04-05T06:04:26.751Z,42.11
2023-04-05T06:06:54.945Z,42.00
2023-04-05T06:09:24.305Z,42.26
2023-04-05T06:11:56.729Z,42.14
2023-04-05T06:14:24.684Z,42.10
2023-04-05T06:16:51.635Z,41.88
2023-04-05T06:19:18.611Z,41.87
2023-04-05T06:21:47.998Z,42.43
2023-04-05T06:24:14.839Z,41.96
2023-04-05T06:26:41.745Z,42.45
2023-04-05T06:29:08.694Z,42.16
2023-04-05T06:31:36.445Z,42.31
2023-04-05T06:34:03.316Z,42.13
2023-04-05T06:36:32.100Z,42.10
2023-04-05T06:38:59.594Z,42.11
2023-04-05T06:41:28.031Z,42.17
2023-04-05T06:43:55.147Z,42.38
2023-04-05T06:46:22.239Z,42.39
2023-04-05T06:48:50.230Z,42.18
2023-04-05T06:51:17.406Z,42.52
2023-04-05T06:53:44.325Z,42.54
2023-04-05T06:56:11.557Z,42.52
2023-04-05T06:58:39.153Z,42.29
2023-04-05T07:01:06.195Z,42.08
2023-04-05T07:03:34.129Z,42.27
2023-04-05T07:06:01.525Z,42.27
2023-04-05T07:08:29.253Z,42.26
2023-04-05T07:10:56.300Z,42.37
2023-04-05T07:13:24.262Z,42.18
2023-04-05T07:15:51.917Z,42.28
2023-04-05T07:18:19.597Z,42.27
2023-04-05T07:20:48.097Z,42.27
2023-04-05T07:23:15.076Z,42.19
2023-04-05T07:25:42.040Z,42.34
2023-04-05T07:28:09.028Z,42.27
2023-04-05T07:30:37.322Z,42.13
2023-04-05T07:33:04.675Z,42.10
2023-04-05T07:35:31.953Z,42.08
2023-04-05T07:37:58.964Z,42.54
2023-04-05T07:40:26.131Z,42.17
2023-04-05T07:42:53.276Z,42.21
2023-04-05T07:45:20.450Z,42.50
2023-04-05T07:47:47.616Z,42.47
2023-04-05T07:50:25.505Z,42.37
2023-04-05T07:52:52.512Z,42.39
2023-04-05T07:55:19.845Z,42.52
2023-04-05T07:57:46.847Z,42.35
2023-04-05T08:00:19.947Z,42.28
2023-04-05T08:02:49.513Z,42.34
2023-04-05T08:05:16.773Z,42.59
2023-04-05T08:07:43.847Z,42.50
2023-04-05T08:10:16.280Z,42.43
2023-04-05T08:12:43.171Z,42.60
2023-04-05T08:15:10.552Z,42.28
2023-04-05T08:17:37.542Z,42.45
2023-04-05T08:20:04.796Z,42.39
2023-04-05T08:22:34.270Z,42.31
2023-04-05T08:25:02.137Z,42.41
2023-04-05T08:27:29.590Z,42.23
2023-04-05T08:29:56.625Z,42.57
2023-04-05T08:32:23.799Z,42.38
2023-04-05T08:34:50.722Z,42.59
2023-04-05T08:37:17.887Z,42.21
2023-04-05T08:39:45.330Z,42.53
2023-04-05T08:42:18.110Z,42.52
2023-04-05T08:44:46.517Z,42.26
2023-04-05T08:47:22.774Z,42.47
2023-04-05T08:49:50.174Z,42.41
2023-04-05T08:52:17.299Z,42.68
2023-04-05T08:54:44.769Z,42.36
2023-04-05T08:57:12.085Z,42.46
2023-04-05T08:59:41.433Z,42.58
2023-04-05T09:02:15.065Z,42.34
2023-04-05T09:04:45.309Z,42.22
2023-04-05T09:07:14.082Z,42.37
2023-04-05T09:09:43.642Z,42.58
2023-04-05T09:12:11.423Z,42.56
2023-04-05T09:14:39.636Z,42.51
2023-04-05T09:17:06.893Z,42.63
2023-04-05T09:19:34.063Z,42.55
2023-04-05T09:22:03.362Z,42.39
2023-04-05T09:24:31.528Z,42.31
2023-04-05T09:27:08.257Z,42.53
2023-04-05T09:29:35.387Z,42.66
2023-04-05T09:32:04.272Z,42.30
2023-04-05T09:34:33.950Z,42.62
2023-04-05T09:37:03.305Z,42.68
2023-04-05T09:39:33.254Z,42.72
2023-04-05T09:42:10.158Z,42.43
2023-04-05T09:44:46.287Z,42.55
2023-04-05T09:47:17.763Z,42.53
2023-04-05T09:49:44.819Z,42.49
2023-04-05T09:52:21.812Z,42.50
2023-04-05T09:54:48.977Z,42.59
2023-04-05T09:57:17.299Z,42.79
2023-04-05T09:59:45.044Z,42.34
2023-04-05T10:02:12.493Z,42.38
2023-04-05T10:04:41.734Z,42.69
2023-04-05T10:07:12.322Z,42.42
2023-04-05T10:09:41.993Z,42.35
2023-04-05T10:12:10.078Z,42.59
2023-04-05T10:14:38.583Z,42.66
2023-04-05T10:17:08.754Z,42.38
2023-04-05T10:19:45.339Z,42.64
2023-04-05T10:22:15.403Z,42.65
2023-04-05T10:24:50.085Z,42.48
2023-04-05T10:27:19.537Z,42.28
2023-04-05T10:29:52.025Z,42.33
2023-04-05T10:32:23.840Z,42.50
2023-04-05T10:34:57.727Z,42.51
2023-04-05T10:37:32.543Z,42.20
2023-04-05T10:40:03.462Z,42.62
2023-04-05T10:42:36.904Z,42.37
2023-04-05T10:45:05.250Z,42.09
2023-04-05T10:47:35.779Z,42.53
2023-04-05T10:50:04.766Z,42.47
2023-04-05T10:52:33.831Z,42.33
2023-04-05T10:55:03.551Z,42.17
2023-04-05T10:57:30.853Z,42.34
2023-04-05T11:00:00.221Z,42.19
2023-04-05T11:02:29.169Z,42.05
2023-04-05T11:04:57.737Z,42.22
2023-04-05T11:07:24.950Z,42.11
2023-04-05T11:09:52.991Z,41.98
2023-04-05T11:12:21.010Z,41.95
2023-04-05T11:14:47.913Z,41.91
2023-04-05T11:17:24.070Z,42.19
2023-04-05T11:19:52.891Z,41.90
2023-04-05T11:22:29.136Z,42.13
2023-04-05T11:24:58.388Z,42.06
2023-04-05T11:27:26.367Z,42.07
2023-04-05T11:29:54.801Z,41.61
2023-04-05T11:32:22.098Z,42.09
2023-04-05T11:35:02.152Z,41.78
2023-04-05T11:37:38.109Z,41.93
2023-04-05T11:40:14.096Z,42.04
2023-04-05T11:42:41.892Z,41.67
2023-04-05T11:45:09.237Z,41.95
2023-04-05T11:47:37.972Z,42.05
2023-04-05T11:50:09.937Z,41.99
2023-04-05T11:52:36.791Z,41.86
2023-04-05T11:55:05.347Z,41.82
2023-04-05T11:57:33.589Z,41.74
2023-04-05T12:00:00.776Z,41.80
2023-04-05T12:02:35.458Z,41.67
2023-04-05T12:05:02.624Z,41.66
2023-04-05T12:07:32.817Z,41.60
2023-04-05T12:10:01.404Z,41.89
2023-04-05T12:12:28.456Z,41.80
2023-04-05T12:15:05.025Z,41.81
2023-04-05T12:17:39.774Z,41.28
2023-04-05T12:20:07.535Z,41.21
2023-04-05T12:22:35.169Z,41.40
2023-04-05T12:25:02.414Z,41.33
2023-04-05T12:27:29.926Z,41.31
2023-04-05T12:30:06.207Z,41.44
2023-04-05T12:32:37.056Z,41.25
2023-04-05T12:35:13.066Z,41.08
2023-04-05T12:37:41.175Z,41.50
2023-04-05T12:40:09.040Z,41.06
2023-04-05T12:42:36.749Z,41.04
2023-04-05T12:45:08.467Z,41.09
2023-04-05T12:47:36.457Z,41.33
2023-04-05T12:50:12.982Z,41.17
2023-04-05T12:52:39.876Z,41.27
2023-04-05T12:55:15.732Z,41.15
2023-04-05T12:57:43.791Z,40.95
2023-04-05T13:00:11.774Z,41.09
2023-04-05T13:02:38.827Z,40.80
2023-04-05T13:05:06.182Z,41.07
2023-04-05T13:07:36.773Z,41.01
2023-04-05T13:10:04.173Z,41.27
2023-04-05T13:12:31.014Z,41.20
2023-04-05T13:14:58.032Z,40.99
2023-04-05T13:17:25.472Z,41.09
2023-04-05T13:19:52.509Z,41.02
2023-04-05T13:22:19.376Z,40.88
2023-04-05T13:24:46.356Z,41.00
2023-04-05T13:27:13.930Z,41.10
2023-04-05T13:29:41.334Z,41.28
2023-04-05T13:32:08.193Z,41.34
2023-04-05T13:34:35.042Z,40.86
2023-04-05T13:37:02.188Z,41.27
2023-04-05T13:39:31.663Z,41.16
2023-04-05T13:41:58.768Z,41.19
2023-04-05T13:44:25.904Z,41.25
2023-04-05T13:46:58.688Z,40.98
2023-04-05T13:49:34.381Z,41.24
2023-04-05T13:52:01.322Z,41.29
2023-04-05T13:54:28.560Z,41.45
2023-04-05T13:56:55.870Z,41.41
2023-04-05T13:59:22.831Z,41.18
2023-04-05T14:01:50.167Z,41.09
2023-04-05T14:04:17.256Z,41.40
2023-04-05T14:06:44.630Z,41.43
2023-04-05T14:09:11.592Z,41.15
2023-04-05T14:11:39.174Z,40.91
2023-04-05T14:14:07.431Z,41.18
2023-04-05T14:16:34.447Z,41.05
2023-04-05T14:19:01.393Z,41.43
2023-04-05T14:21:29.262Z,41.21
2023-04-05T14:23:58.673Z,41.10
2023-04-05T14:26:26.571Z,40.98
2023-04-05T14:28:53.931Z,41.40
2023-04-05T14:31:20.905Z,41.08
2023-04-05T14:33:48.077Z,41.15
2023-04-05T14:36:15.234Z,41.46
2023-04-05T14:38:44.547Z,41.56
2023-04-05T14:41:12.293Z,41.33
2023-04-05T14:43:39.340Z,41.13
2023-04-05T14:46:06.383Z,41.38
2023-04-05T14:48:34.518Z,41.35
2023-04-05T14:51:13.005Z,41.17
2023-04-05T14:53:40.965Z,41.53
2023-04-05T14:56:18.890Z,41.34
2023-04-05T14:58:45.907Z,41.33
2023-04-05T15:01:19.780Z,41.33
2023-04-05T15:03:48.924Z,41.48
2023-04-05T15:06:16.776Z,41.63
2023-04-05T15:08:43.774Z,41.39
2023-04-05T15:11:24.499Z,41.69
2023-04-05T15:13:51.885Z,41.73
2023-04-05T15:16:21.688Z,41.38
2023-04-05T15:18:49.047Z,41.46
2023-04-05T15:21:18.756Z,41.89
2023-04-05T15:23:45.906Z,41.61
2023-04-05T15:26:13.215Z,41.95
2023-04-05T15:28:44.890Z,41.67
2023-04-05T15:31:14.155Z,41.77
2023-04-05T15:33:41.411Z,41.80
2023-04-05T15:36:08.413Z,41.97
2023-04-05T15:38:35.524Z,41.87
2023-04-05T15:41:17.433Z,41.55
2023-04-05T15:43:49.049Z,41.70
2023-04-05T15:46:19.488Z,41.82
2023-04-05T15:48:47.339Z,41.68
2023-04-05T15:51:17.697Z,41.82
2023-04-05T15:54:01.015Z,41.62
2023-04-05T15:56:32.614Z,41.80
2023-04-05T15:59:00.639Z,42.03
2023-04-05T16:01:31.230Z,41.92
2023-04-05T16:03:58.306Z,42.05
2023-04-05T16:06:28.670Z,41.79
2023-04-05T16:09:04.687Z,41.96
2023-04-05T16:12:10.052Z,42.18
2023-04-05T16:14:37.316Z,42.01
2023-04-05T16:19:51.697Z,41.99
2023-04-05T16:22:18.687Z,42.13
2023-04-05T16:24:45.857Z,42.41
2023-04-05T16:29:57.633Z,42.32
2023-04-05T16:32:30.567Z,42.38
2023-04-05T16:34:57.749Z,42.50
2023-04-05T16:37:25.286Z,42.38
2023-04-05T16:39:52.646Z,42.49
2023-04-05T16:42:19.629Z,42.59
2023-04-05T16:44:46.947Z,42.35
2023-04-05T16:47:13.861Z,42.54
2023-04-05T16:49:41.068Z,42.38
2023-04-05T16:52:08.335Z,42.23
2023-04-05T16:54:41.124Z,42.35
2023-04-05T16:57:08.883Z,42.51
2023-04-05T16:59:36.138Z,42.35
2023-04-05T17:02:19.772Z,42.51
2023-04-05T17:04:47.984Z,42.38
2023-04-05T17:07:21.941Z,42.79
2023-04-05T17:09:50.669Z,42.40
2023-04-05T17:12:17.964Z,42.74
2023-04-05T17:14:45.022Z,42.52
2023-04-05T17:17:12.328Z,42.51
2023-04-05T17:19:39.927Z,42.74
2023-04-05T17:22:07.081Z,42.62
2023-04-05T17:24:35.032Z,43.02
2023-04-05T17:27:02.954Z,42.56
2023-04-05T17:29:37.234Z,42.78
2023-04-05T17:32:04.299Z,42.70
2023-04-05T17:34:31.255Z,42.67
2023-04-05T17:36:58.325Z,42.84
2023-04-05T17:39:25.676Z,43.00
2023-04-05T17:41:55.190Z,42.68
2023-04-05T17:44:22.540Z,42.78
2023-04-05T17:47:01.315Z,43.07
2023-04-05T17:49:33.300Z,42.98
2023-04-05T17:52:01.043Z,43.14
2023-04-05T17:54:28.173Z,43.13
2023-04-05T17:56:55.270Z,43.22
2023-04-05T17:59:23.901Z,43.24
2023-04-05T18:01:54.102Z,43.46
2023-04-05T18:04:21.901Z,43.67
2023-04-05T18:06:49.098Z,43.69
2023-04-05T18:09:16.177Z,43.35
2023-04-05T18:11:43.148Z,43.65
2023-04-05T18:14:10.160Z,43.54
2023-04-05T18:16:37.689Z,43.65
2023-04-05T18:19:05.029Z,43.46
2023-04-05T18:21:32.672Z,43.60
2023-04-05T18:23:59.624Z,43.81
2023-04-05T18:26:26.543Z,43.64
2023-04-05T18:29:00.083Z,43.87
2023-04-05T18:31:27.586Z,43.89
2023-04-05T18:33:54.588Z,43.88
2023-04-05T18:36:21.692Z,43.60
2023-04-05T18:38:48.667Z,44.02
2023-04-05T18:41:15.661Z,44.03
2023-04-05T18:43:42.685Z,43.99
2023-04-05T18:46:09.716Z,44.07
2023-04-05T18:48:39.252Z,44.19
2023-04-05T18:51:06.517Z,44.17
2023-04-05T18:53:33.497Z,44.49
2023-04-05T18:56:00.375Z,44.49
2023-04-05T18:58:27.230Z,44.45
2023-04-05T19:00:55.707Z,44.47
2023-04-05T19:03:22.683Z,44.11
2023-04-05T19:05:51.037Z,44.41
2023-04-05T19:08:19.014Z,44.53
2023-04-05T19:10:45.946Z,44.44
2023-04-05T19:13:12.776Z,44.53
2023-04-05T19:15:40.225Z,44.48
2023-04-05T19:18:07.291Z,44.42
2023-04-05T19:20:34.229Z,44.28
2023-04-05T19:23:01.289Z,44.93
2023-04-05T19:25:28.166Z,44.48
2023-04-05T19:27:56.473Z,44.49
2023-04-05T19:30:24.432Z,44.28
2023-04-05T19:32:53.219Z,44.67
2023-04-05T19:35:20.204Z,44.54
2023-04-05T19:37:47.034Z,44.87
2023-04-05T19:40:13.983Z,45.02
2023-04-05T19:42:47.909Z,44.65
2023-04-05T19:45:21.733Z,45.08
2023-04-05T19:47:48.913Z,45.13
2023-04-05T19:50:27.561Z,44.96
2023-04-05T19:52:54.427Z,45.05
2023-04-05T19:55:32.065Z,45.02
2023-04-05T19:57:59.629Z,45.28
2023-04-05T20:00:35.392Z,45.33
2023-04-05T20:03:02.820Z,44.79
2023-04-05T20:05:39.056Z,45.06
2023-04-05T20:08:07.725Z,45.38
2023-04-05T20:10:40.867Z,45.11
2023-04-05T20:13:07.806Z,45.22
2023-04-05T20:15:39.110Z,45.30
2023-04-05T20:18:07.082Z,45.59
2023-04-05T20:20:34.538Z,45.44
2023-04-05T20:23:01.473Z,45.25
2023-04-05T20:25:38.487Z,45.90
2023-04-05T20:28:23.431Z,45.83
2023-04-05T20:30:50.384Z,45.32
2023-04-05T20:33:27.219Z,45.76
2023-04-05T20:35:54.102Z,45.69
2023-04-05T20:38:21.071Z,45.83
2023-04-05T20:40:47.907Z,45.71
2023-04-05T20:43:14.782Z,45.56
2023-04-05T20:45:42.405Z,46.02
2023-04-05T20:48:09.448Z,45.97
2023-04-05T20:50:36.784Z,46.08
2023-04-05T20:53:06.160Z,45.91
2023-04-05T20:55:33.094Z,45.71
2023-04-05T20:57:59.994Z,46.21
2023-04-05T21:00:27.045Z,45.71
2023-04-05T21:02:54.024Z,46.06
2023-04-05T21:05:20.995Z,45.68
2023-04-05T21:07:47.800Z,45.84
2023-04-05T21:10:14.937Z,45.84
2023-04-05T21:12:41.770Z,45.95
2023-04-05T21:15:09.071Z,46.28
2023-04-05T21:17:36.120Z,45.89
2023-04-05T21:20:02.971Z,46.12
2023-04-05T21:22:29.765Z,46.32
2023-04-05T21:24:56.656Z,46.00
2023-04-05T21:27:24.472Z,46.35
2023-04-05T21:29:51.626Z,46.44
2023-04-05T21:32:18.513Z,46.17
2023-04-05T21:34:45.316Z,46.24
2023-04-05T21:37:12.196Z,46.33
2023-04-05T21:39:39.046Z,46.70
2023-04-05T21:42:05.999Z,46.24
2023-04-05T21:44:32.851Z,46.39
2023-04-05T21:47:00.569Z,46.24
2023-04-05T21:49:27.421Z,46.17
2023-04-05T21:51:54.286Z,46.41
2023-04-05T21:54:21.236Z,46.37
2023-04-05T21:56:48.117Z,46.79
2023-04-05T21:59:14.982Z,46.55
2023-04-05T22:01:41.933Z,46.32
2023-04-05T22:04:08.835Z,46.72
2023-04-05T22:06:35.893Z,46.52
2023-04-05T22:09:02.707Z,46.77
2023-04-05T22:11:29.821Z,46.87
2023-04-05T22:13:56.710Z,46.95
2023-04-05T22:16:23.682Z,46.54
2023-04-05T22:18:50.685Z,46.82
2023-04-05T22:21:17.494Z,46.57
2023-04-05T22:23:44.377Z,46.56
2023-04-05T22:26:11.184Z,46.65
2023-04-05T22:28:38.164Z,46.69
2023-04-05T22:31:05.205Z,46.81
2023-04-05T22:33:32.042Z,46.76
2023-04-05T22:35:58.974Z,46.89
2023-04-05T22:38:26.124Z,46.89
2023-04-05T22:40:52.978Z,46.87
2023-04-05T22:43:19.887Z,46.81
2023-04-05T22:45:49.839Z,47.01
2023-04-05T22:48:16.861Z,46.66
2023-04-05T22:50:43.624Z,46.67
2023-04-05T22:53:10.449Z,47.21
2023-04-05T22:55:40.108Z,47.08
2023-04-05T22:58:07.501Z,46.93
2023-04-05T23:00:38.609Z,46.86
2023-04-05T23:03:05.956Z,47.25
2023-04-05T23:05:32.839Z,46.91
2023-04-05T23:07:59.635Z,47.14
2023-04-05T23:10:26.487Z,47.25
2023-04-05T23:12:53.390Z,47.35
2023-04-05T23:15:20.247Z,46.95
2023-04-05T23:17:50.058Z,47.38
2023-04-05T23:20:16.969Z,47.17
2023-04-05T23:22:43.786Z,47.18
2023-04-05T23:25:12.890Z,47.25
2023-04-05T23:27:39.743Z,47.00
2023-04-05T23:30:08.288Z,47.17
2023-04-05T23:32:35.091Z,47.33
2023-04-05T23:35:01.911Z,47.30
2023-04-05T23:37:28.668Z,47.40
2023-04-05T23:39:55.499Z,47.29
2023-04-05T23:42:22.430Z,47.24
2023-04-05T23:44:49.320Z,47.30
2023-04-05T23:47:16.468Z,47.26
2023-04-05T23:49:43.321Z,47.11
2023-04-05T23:52:10.136Z,47.47
2023-04-05T23:54:39.122Z,47.55
2023-04-05T23:57:05.972Z,47.64
2023-04-05T23:59:32.798Z,47.82
